createdAt,value
2023-01-01T00:00:31.253Z,994.41
2023-01-01T00:01:31.186Z,994.51
2023-01-01T00:02:36.529Z,994.53
2023-01-01T00:03:31.255Z,994.49
2023-01-01T00:04:31.234Z,994.46
2023-01-01T00:05:31.256Z,994.44
2023-01-01T00:06:31.270Z,994.52
2023-01-01T00:07:31.288Z,994.47
2023-01-01T00:08:31.306Z,994.48
2023-01-01T00:09:31.332Z,994.45
2023-01-01T00:10:31.346Z,994.5
2023-01-01T00:11:31.359Z,994.43
2023-01-01T00:12:31.371Z,994.48
2023-01-01T00:13:31.394Z,994.48
2023-01-01T00:14:31.413Z,994.49
2023-01-01T00:15:31.427Z,994.41
2023-01-01T00:16:31.520Z,994.47
2023-01-01T00:17:31.463Z,994.4
2023-01-01T00:18:31.477Z,994.36
2023-01-01T00:19:31.499Z,994.39
2023-01-01T00:20:35.122Z,994.41
2023-01-01T00:21:31.527Z,994.38
2023-01-01T00:23:31.564Z,994.34
2023-01-01T00:24:31.583Z,994.34
2023-01-01T00:25:31.603Z,994.39
2023-01-01T00:26:35.144Z,994.42
2023-01-01T00:27:31.637Z,994.41
2023-01-01T00:28:31.652Z,994.34
2023-01-01T00:29:31.665Z,994.34
2023-01-01T00:30:31.688Z,994.37
2023-01-01T00:31:31.766Z,994.29
2023-01-01T00:32:31.810Z,994.39
2023-01-01T00:33:31.738Z,994.47
2023-01-01T00:34:31.760Z,994.37
2023-01-01T00:35:31.771Z,994.33
2023-01-01T00:36:31.789Z,994.36
2023-01-01T00:37:31.804Z,994.31
2023-01-01T00:38:31.828Z,994.46
2023-01-01T00:39:31.842Z,994.37
2023-01-01T00:40:31.860Z,994.36
2023-01-01T00:41:31.875Z,994.39
2023-01-01T00:42:31.897Z,994.48
2023-01-01T00:43:31.926Z,994.42
2023-01-01T00:44:31.931Z,994.46
2023-01-01T00:45:32.035Z,994.52
2023-01-01T00:46:31.969Z,994.49
2023-01-01T00:47:31.978Z,994.47
2023-01-01T00:48:32.038Z,994.53
2023-01-01T00:49:32.015Z,994.53
2023-01-01T00:50:32.030Z,994.48
2023-01-01T00:51:36.865Z,994.56
2023-01-01T00:52:32.070Z,994.48
2023-01-01T00:53:32.147Z,994.51
2023-01-01T00:54:32.101Z,994.54
2023-01-01T00:55:32.121Z,994.54
2023-01-01T00:56:32.135Z,994.56
2023-01-01T00:57:32.153Z,994.53
2023-01-01T00:58:32.180Z,994.6
2023-01-01T00:59:32.199Z,994.56
2023-01-01T01:00:32.208Z,994.58
2023-01-01T01:01:32.275Z,994.49
2023-01-01T01:02:32.393Z,994.52
2023-01-01T01:03:32.275Z,994.54
2023-01-01T01:04:32.305Z,994.58
2023-01-01T01:05:32.288Z,994.57
2023-01-01T01:06:32.311Z,994.54
2023-01-01T01:07:32.317Z,994.44
2023-01-01T01:08:32.348Z,994.52
2023-01-01T01:09:32.361Z,994.49
2023-01-01T01:10:32.379Z,994.54
2023-01-01T01:11:32.397Z,994.57
2023-01-01T01:12:32.412Z,994.57
2023-01-01T01:13:32.435Z,994.6
2023-01-01T01:14:32.445Z,994.57
2023-01-01T01:15:32.468Z,994.6
2023-01-01T01:16:32.530Z,994.54
2023-01-01T01:17:32.499Z,994.53
2023-01-01T01:18:32.524Z,994.57
2023-01-01T01:19:32.536Z,994.53
2023-01-01T01:20:32.576Z,994.51
2023-01-01T01:21:32.587Z,994.5
2023-01-01T01:22:32.582Z,994.49
2023-01-01T01:23:32.601Z,994.47
2023-01-01T01:24:32.623Z,994.51
2023-01-01T01:25:32.637Z,994.53
2023-01-01T01:26:32.669Z,994.5
2023-01-01T01:27:32.676Z,994.49
2023-01-01T01:28:32.695Z,994.51
2023-01-01T01:29:32.699Z,994.42
2023-01-01T01:30:32.750Z,994.51
2023-01-01T01:31:32.759Z,994.57
2023-01-01T01:32:32.783Z,994.52
2023-01-01T01:33:32.782Z,994.53
2023-01-01T01:34:32.809Z,994.59
2023-01-01T01:35:32.815Z,994.6
2023-01-01T01:36:32.852Z,994.56
2023-01-01T01:37:32.845Z,994.56
2023-01-01T01:38:32.866Z,994.57
2023-01-01T01:39:32.882Z,994.59
2023-01-01T01:40:32.902Z,994.62
2023-01-01T01:41:32.914Z,994.59
2023-01-01T01:42:32.941Z,994.64
2023-01-01T01:43:32.953Z,994.59
2023-01-01T01:44:32.966Z,994.67
2023-01-01T01:45:33.665Z,994.63
2023-01-01T01:46:33.072Z,994.68
2023-01-01T01:47:33.032Z,994.61
2023-01-01T01:48:33.035Z,994.69
2023-01-01T01:49:33.057Z,994.61
2023-01-01T01:50:33.075Z,994.77
2023-01-01T01:51:33.092Z,994.69
2023-01-01T01:52:33.135Z,994.71
2023-01-01T01:53:33.529Z,994.72
2023-01-01T01:54:33.139Z,994.75
2023-01-01T01:55:33.160Z,994.8
2023-01-01T01:56:33.175Z,994.8
2023-01-01T01:57:33.191Z,994.85
2023-01-01T01:58:33.215Z,994.8
2023-01-01T01:59:33.227Z,994.81
2023-01-01T02:00:33.242Z,994.81
2023-01-01T02:01:33.368Z,994.86
2023-01-01T02:02:33.452Z,994.89
2023-01-01T02:03:33.300Z,994.92
2023-01-01T02:04:33.314Z,994.82
2023-01-01T02:05:33.334Z,994.89
2023-01-01T02:06:33.350Z,994.91
2023-01-01T02:07:33.365Z,994.93
2023-01-01T02:08:33.414Z,994.94
2023-01-01T02:09:33.401Z,994.92
2023-01-01T02:10:33.423Z,994.98
2023-01-01T02:11:33.442Z,994.96
2023-01-01T02:12:33.453Z,995.05
2023-01-01T02:13:33.472Z,995
2023-01-01T02:14:33.492Z,995.02
2023-01-01T02:15:33.548Z,994.98
2023-01-01T02:16:33.523Z,995
2023-01-01T02:17:38.675Z,994.98
2023-01-01T02:18:33.557Z,994.96
2023-01-01T02:19:33.575Z,995.07
2023-01-01T02:20:33.602Z,994.97
2023-01-01T02:21:33.634Z,994.87
2023-01-01T02:22:33.645Z,995
2023-01-01T02:23:33.650Z,994.95
2023-01-01T02:24:33.702Z,995.01
2023-01-01T02:25:33.682Z,994.96
2023-01-01T02:26:33.697Z,994.96
2023-01-01T02:27:33.717Z,994.98
2023-01-01T02:28:33.737Z,995.01
2023-01-01T02:29:33.748Z,994.97
2023-01-01T02:30:33.770Z,994.97
2023-01-01T02:31:33.850Z,995.01
2023-01-01T02:32:33.802Z,994.96
2023-01-01T02:33:33.823Z,994.91
2023-01-01T02:34:33.850Z,994.97
2023-01-01T02:35:33.855Z,994.94
2023-01-01T02:36:33.873Z,995.02
2023-01-01T02:37:33.892Z,994.98
2023-01-01T02:38:33.910Z,994.91
2023-01-01T02:39:33.925Z,995.02
2023-01-01T02:40:33.974Z,994.88
2023-01-01T02:41:33.962Z,994.86
2023-01-01T02:42:33.994Z,995.01
2023-01-01T02:43:33.992Z,994.97
2023-01-01T02:44:34.015Z,994.97
2023-01-01T02:45:34.030Z,994.96
2023-01-01T02:46:34.046Z,995.02
2023-01-01T02:47:34.069Z,995.02
2023-01-01T02:48:34.098Z,995.04
2023-01-01T02:49:34.103Z,994.93
2023-01-01T02:50:34.128Z,995.05
2023-01-01T02:51:34.136Z,995
2023-01-01T02:52:34.162Z,994.98
2023-01-01T02:53:34.624Z,995.06
2023-01-01T02:54:34.206Z,994.89
2023-01-01T02:55:34.210Z,995
2023-01-01T02:56:34.251Z,995
2023-01-01T02:57:34.246Z,995.07
2023-01-01T02:58:34.266Z,995.07
2023-01-01T02:59:34.277Z,995.06
2023-01-01T03:00:34.297Z,995.12
2023-01-01T03:01:34.389Z,995.05
2023-01-01T03:02:34.405Z,995.13
2023-01-01T03:03:34.359Z,995.08
2023-01-01T03:04:34.366Z,995.06
2023-01-01T03:05:34.384Z,995.06
2023-01-01T03:06:34.402Z,995.1
2023-01-01T03:07:34.424Z,995.07
2023-01-01T03:08:34.438Z,995.12
2023-01-01T03:09:34.471Z,995.06
2023-01-01T03:10:34.468Z,995.08
2023-01-01T03:11:34.490Z,995.02
2023-01-01T03:12:34.527Z,995
2023-01-01T03:13:34.533Z,995.06
2023-01-01T03:14:34.543Z,995.08
2023-01-01T03:15:34.604Z,995.09
2023-01-01T03:16:34.578Z,995.03
2023-01-01T03:17:34.602Z,995.04
2023-01-01T03:18:34.610Z,995.05
2023-01-01T03:19:34.630Z,995.03
2023-01-01T03:20:34.645Z,995.07
2023-01-01T03:21:34.664Z,994.96
2023-01-01T03:22:34.690Z,995.01
2023-01-01T03:23:34.705Z,995
2023-01-01T03:24:34.714Z,994.94
2023-01-01T03:25:34.740Z,994.99
2023-01-01T03:26:34.745Z,994.88
2023-01-01T03:27:34.770Z,994.93
2023-01-01T03:28:34.809Z,994.98
2023-01-01T03:29:34.807Z,994.84
2023-01-01T03:30:34.823Z,994.9
2023-01-01T03:31:34.888Z,994.92
2023-01-01T03:32:34.857Z,994.95
2023-01-01T03:33:34.874Z,994.94
2023-01-01T03:34:34.892Z,994.92
2023-01-01T03:35:34.911Z,995.05
2023-01-01T03:36:34.922Z,995.08
2023-01-01T03:37:34.947Z,995.08
2023-01-01T03:38:34.958Z,995.12
2023-01-01T03:39:34.981Z,995.09
2023-01-01T03:40:34.999Z,995.19
2023-01-01T03:41:35.025Z,995.15
2023-01-01T03:42:35.029Z,995.09
2023-01-01T03:43:35.050Z,995.1
2023-01-01T03:44:35.138Z,995.1
2023-01-01T03:45:35.087Z,995.16
2023-01-01T03:46:35.104Z,995.19
2023-01-01T03:47:35.118Z,995.14
2023-01-01T03:48:35.136Z,995.11
2023-01-01T03:49:35.152Z,995.09
2023-01-01T03:50:35.169Z,995.14
2023-01-01T03:51:35.189Z,995.15
2023-01-01T03:52:35.206Z,995.12
2023-01-01T03:53:35.546Z,995.11
2023-01-01T03:54:35.241Z,995.11
2023-01-01T03:55:35.257Z,995.15
2023-01-01T03:56:35.277Z,995.11
2023-01-01T03:57:35.291Z,995.21
2023-01-01T03:58:35.311Z,995.19
2023-01-01T03:59:35.348Z,995.19
2023-01-01T04:00:35.369Z,995.22
2023-01-01T04:01:35.557Z,995.28
2023-01-01T04:02:35.444Z,995.21
2023-01-01T04:03:35.400Z,995.3
2023-01-01T04:04:35.417Z,995.19
2023-01-01T04:05:35.454Z,995.24
2023-01-01T04:06:35.485Z,995.33
2023-01-01T04:07:35.474Z,995.25
2023-01-01T04:08:35.522Z,995.23
2023-01-01T04:09:35.524Z,995.22
2023-01-01T04:10:35.532Z,995.18
2023-01-01T04:11:35.540Z,995.32
2023-01-01T04:12:35.557Z,995.19
2023-01-01T04:13:35.569Z,995.19
2023-01-01T04:14:35.601Z,995.16
2023-01-01T04:15:35.615Z,995.23
2023-01-01T04:16:35.697Z,995.19
2023-01-01T04:17:35.642Z,995.15
2023-01-01T04:18:35.667Z,995.08
2023-01-01T04:19:35.677Z,995.14
2023-01-01T04:20:35.695Z,995.14
2023-01-01T04:21:35.714Z,995.11
2023-01-01T04:22:35.734Z,995.07
2023-01-01T04:23:35.747Z,995.17
2023-01-01T04:24:35.760Z,995.21
2023-01-01T04:25:35.782Z,995.16
2023-01-01T04:26:35.809Z,995.17
2023-01-01T04:27:35.815Z,995.17
2023-01-01T04:28:35.840Z,995.09
2023-01-01T04:29:35.852Z,995.15
2023-01-01T04:31:35.887Z,995.23
2023-01-01T04:32:35.926Z,995.19
2023-01-01T04:33:35.925Z,995.23
2023-01-01T04:34:35.944Z,995.25
2023-01-01T04:35:35.955Z,995.36
2023-01-01T04:36:35.981Z,995.26
2023-01-01T04:37:36.004Z,995.28
2023-01-01T04:38:36.012Z,995.31
2023-01-01T04:39:36.028Z,995.33
2023-01-01T04:40:36.055Z,995.36
2023-01-01T04:41:36.060Z,995.37
2023-01-01T04:42:36.078Z,995.43
2023-01-01T04:43:36.099Z,995.47
2023-01-01T04:44:36.112Z,995.46
2023-01-01T04:45:36.170Z,995.44
2023-01-01T04:46:36.148Z,995.46
2023-01-01T04:47:36.169Z,995.55
2023-01-01T04:48:36.215Z,995.53
2023-01-01T04:49:36.206Z,995.49
2023-01-01T04:50:36.219Z,995.53
2023-01-01T04:51:36.239Z,995.5
2023-01-01T04:52:36.252Z,995.59
2023-01-01T04:53:36.720Z,995.54
2023-01-01T04:54:36.290Z,995.6
2023-01-01T04:55:36.305Z,995.64
2023-01-01T04:56:36.327Z,995.66
2023-01-01T04:57:36.340Z,995.64
2023-01-01T04:58:36.358Z,995.7
2023-01-01T04:59:36.377Z,995.71
2023-01-01T05:00:36.440Z,995.68
2023-01-01T05:01:36.523Z,995.61
2023-01-01T05:02:36.544Z,995.67
2023-01-01T05:03:36.449Z,995.67
2023-01-01T05:04:36.484Z,995.65
2023-01-01T05:05:36.483Z,995.66
2023-01-01T05:06:36.501Z,995.7
2023-01-01T05:07:36.521Z,995.64
2023-01-01T05:08:36.535Z,995.64
2023-01-01T05:09:36.554Z,995.7
2023-01-01T05:10:36.568Z,995.72
2023-01-01T05:11:36.588Z,995.72
2023-01-01T05:12:36.603Z,995.69
2023-01-01T05:13:36.627Z,995.7
2023-01-01T05:14:36.640Z,995.67
2023-01-01T05:15:36.656Z,995.67
2023-01-01T05:16:36.749Z,995.7
2023-01-01T05:17:36.690Z,995.72
2023-01-01T05:18:36.710Z,995.76
2023-01-01T05:19:36.727Z,995.74
2023-01-01T05:20:36.774Z,995.72
2023-01-01T05:21:36.758Z,995.7
2023-01-01T05:22:36.774Z,995.72
2023-01-01T05:23:36.796Z,995.65
2023-01-01T05:24:36.812Z,995.67
2023-01-01T05:25:36.834Z,995.71
2023-01-01T05:26:36.888Z,995.76
2023-01-01T05:27:36.880Z,995.64
2023-01-01T05:28:36.883Z,995.62
2023-01-01T05:29:36.897Z,995.74
2023-01-01T05:30:36.920Z,995.74
2023-01-01T05:31:36.982Z,995.73
2023-01-01T05:32:36.951Z,995.76
2023-01-01T05:33:36.967Z,995.82
2023-01-01T05:35:37.006Z,995.76
2023-01-01T05:36:37.053Z,995.84
2023-01-01T05:37:37.037Z,995.85
2023-01-01T05:38:37.061Z,995.85
2023-01-01T05:39:37.072Z,995.79
2023-01-01T05:40:37.092Z,995.89
2023-01-01T05:41:37.135Z,995.84
2023-01-01T05:42:37.128Z,995.85
2023-01-01T05:43:37.145Z,995.84
2023-01-01T05:44:37.167Z,995.92
2023-01-01T05:45:37.245Z,995.94
2023-01-01T05:46:37.216Z,995.94
2023-01-01T05:47:37.212Z,995.99
2023-01-01T05:48:37.232Z,995.95
2023-01-01T05:49:37.250Z,996.04
2023-01-01T05:50:37.268Z,995.99
2023-01-01T05:52:37.323Z,995.97
2023-01-01T05:53:37.766Z,996.01
2023-01-01T05:54:37.344Z,996.04
2023-01-01T05:55:37.356Z,996.01
2023-01-01T05:56:37.380Z,995.99
2023-01-01T05:57:37.387Z,995.94
2023-01-01T05:58:37.415Z,995.9
2023-01-01T05:59:37.421Z,995.95
2023-01-01T06:00:37.432Z,995.99
2023-01-01T06:01:43.365Z,996.02
2023-01-01T06:02:37.512Z,996.06
2023-01-01T06:03:37.499Z,996
2023-01-01T06:04:37.533Z,995.98
2023-01-01T06:05:37.528Z,995.92
2023-01-01T06:06:37.549Z,995.98
2023-01-01T06:07:37.566Z,996
2023-01-01T06:08:37.618Z,996.04
2023-01-01T06:09:37.594Z,995.99
2023-01-01T06:10:37.623Z,996.04
2023-01-01T06:11:37.638Z,996.1
2023-01-01T06:12:37.648Z,996.12
2023-01-01T06:13:37.666Z,996.19
2023-01-01T06:14:37.684Z,996.21
2023-01-01T06:15:37.703Z,996.19
2023-01-01T06:16:37.758Z,996.19
2023-01-01T06:17:37.735Z,996.21
2023-01-01T06:18:37.758Z,996.13
2023-01-01T06:19:37.770Z,996.12
2023-01-01T06:20:37.787Z,996.19
2023-01-01T06:21:37.806Z,996.13
2023-01-01T06:22:37.824Z,996.19
2023-01-01T06:23:37.844Z,996.25
2023-01-01T06:24:39.192Z,996.28
2023-01-01T06:25:37.876Z,996.34
2023-01-01T06:26:37.896Z,996.34
2023-01-01T06:27:37.912Z,996.34
2023-01-01T06:28:37.931Z,996.36
2023-01-01T06:29:37.949Z,996.36
2023-01-01T06:30:37.958Z,996.34
2023-01-01T06:31:40.758Z,996.35
2023-01-01T06:32:37.995Z,996.3
2023-01-01T06:33:38.022Z,996.35
2023-01-01T06:34:38.029Z,996.38
2023-01-01T06:35:38.047Z,996.35
2023-01-01T06:36:38.081Z,996.3
2023-01-01T06:37:38.085Z,996.25
2023-01-01T06:38:38.098Z,996.24
2023-01-01T06:39:38.120Z,996.31
2023-01-01T06:40:38.159Z,996.35
2023-01-01T06:41:38.159Z,996.38
2023-01-01T06:42:38.189Z,996.42
2023-01-01T06:43:38.190Z,996.4
2023-01-01T06:44:38.206Z,996.4
2023-01-01T06:45:38.224Z,996.42
2023-01-01T06:46:38.327Z,996.46
2023-01-01T06:47:38.257Z,996.45
2023-01-01T06:48:38.275Z,996.44
2023-01-01T06:49:38.293Z,996.49
2023-01-01T06:50:38.310Z,996.54
2023-01-01T06:51:38.345Z,996.52
2023-01-01T06:52:38.347Z,996.61
2023-01-01T06:53:38.569Z,996.69
2023-01-01T06:54:38.379Z,996.73
2023-01-01T06:55:38.400Z,996.7
2023-01-01T06:56:38.437Z,996.69
2023-01-01T06:57:38.434Z,996.77
2023-01-01T06:58:38.449Z,996.74
2023-01-01T06:59:38.477Z,996.72
2023-01-01T07:00:38.486Z,996.73
2023-01-01T07:01:38.595Z,996.75
2023-01-01T07:02:38.612Z,996.69
2023-01-01T07:03:38.620Z,996.66
2023-01-01T07:04:38.551Z,996.71
2023-01-01T07:05:38.570Z,996.77
2023-01-01T07:06:38.586Z,996.8
2023-01-01T07:07:38.606Z,996.83
2023-01-01T07:08:38.622Z,996.85
2023-01-01T07:09:38.644Z,996.92
2023-01-01T07:10:38.656Z,996.95
2023-01-01T07:11:38.673Z,997.01
2023-01-01T07:12:38.718Z,996.98
2023-01-01T07:13:38.708Z,996.95
2023-01-01T07:14:38.727Z,997.02
2023-01-01T07:15:38.805Z,997.04
2023-01-01T07:16:38.835Z,997.03
2023-01-01T07:17:38.780Z,997.08
2023-01-01T07:18:38.798Z,997.05
2023-01-01T07:19:38.812Z,997.01
2023-01-01T07:20:38.838Z,997.11
2023-01-01T07:21:38.851Z,997.04
2023-01-01T07:22:38.873Z,997.05
2023-01-01T07:23:38.884Z,997.04
2023-01-01T07:24:38.900Z,997.03
2023-01-01T07:25:38.917Z,997.05
2023-01-01T07:26:38.939Z,997.1
2023-01-01T07:27:38.954Z,997.08
2023-01-01T07:28:38.998Z,997.11
2023-01-01T07:29:38.993Z,997.19
2023-01-01T07:30:39.022Z,997.21
2023-01-01T07:31:39.119Z,997.24
2023-01-01T07:32:39.039Z,997.27
2023-01-01T07:33:39.059Z,997.34
2023-01-01T07:34:39.078Z,997.27
2023-01-01T07:35:39.096Z,997.27
2023-01-01T07:36:39.123Z,997.28
2023-01-01T07:37:39.129Z,997.31
2023-01-01T07:38:39.148Z,997.27
2023-01-01T07:39:39.165Z,997.32
2023-01-01T07:40:39.186Z,997.25
2023-01-01T07:41:39.200Z,997.22
2023-01-01T07:42:39.237Z,997.32
2023-01-01T07:43:39.232Z,997.38
2023-01-01T07:44:39.286Z,997.39
2023-01-01T07:45:39.268Z,997.46
2023-01-01T07:46:39.411Z,997.51
2023-01-01T07:47:39.304Z,997.49
2023-01-01T07:48:40.255Z,997.44
2023-01-01T07:49:39.339Z,997.52
2023-01-01T07:50:39.354Z,997.48
2023-01-01T07:51:39.374Z,997.46
2023-01-01T07:52:39.396Z,997.47
2023-01-01T07:53:39.612Z,997.51
2023-01-01T07:54:39.430Z,997.45
2023-01-01T07:55:39.441Z,997.48
2023-01-01T07:56:39.476Z,997.46
2023-01-01T07:57:39.481Z,997.48
2023-01-01T07:58:39.495Z,997.56
2023-01-01T07:59:39.515Z,997.56
2023-01-01T08:00:39.570Z,997.5
2023-01-01T08:01:39.585Z,997.6
2023-01-01T08:02:39.695Z,997.59
2023-01-01T08:03:39.581Z,997.64
2023-01-01T08:04:39.601Z,997.64
2023-01-01T08:05:39.624Z,997.66
2023-01-01T08:06:39.633Z,997.62
2023-01-01T08:07:39.655Z,997.62
2023-01-01T08:08:39.675Z,997.62
2023-01-01T08:09:39.695Z,997.65
2023-01-01T08:10:39.704Z,997.61
2023-01-01T08:11:39.762Z,997.61
2023-01-01T08:12:39.739Z,997.65
2023-01-01T08:13:39.778Z,997.59
2023-01-01T08:14:39.777Z,997.57
2023-01-01T08:15:39.830Z,997.59
2023-01-01T08:16:39.844Z,997.64
2023-01-01T08:17:46.087Z,997.66
2023-01-01T08:18:39.861Z,997.75
2023-01-01T08:19:39.866Z,997.74
2023-01-01T08:20:39.885Z,997.78
2023-01-01T08:21:39.899Z,997.72
2023-01-01T08:22:39.916Z,997.79
2023-01-01T08:23:39.934Z,997.75
2023-01-01T08:24:39.949Z,997.75
2023-01-01T08:25:39.989Z,997.83
2023-01-01T08:26:39.986Z,997.9
2023-01-01T08:27:40.005Z,997.9
2023-01-01T08:28:40.019Z,997.92
2023-01-01T08:29:40.039Z,997.85
2023-01-01T08:30:40.063Z,997.95
2023-01-01T08:31:40.158Z,997.94
2023-01-01T08:32:40.115Z,997.91
2023-01-01T08:33:40.112Z,997.92
2023-01-01T08:34:40.129Z,997.92
2023-01-01T08:35:40.146Z,997.99
2023-01-01T08:36:40.161Z,998
2023-01-01T08:37:40.179Z,997.97
2023-01-01T08:38:40.199Z,997.97
2023-01-01T08:39:40.213Z,997.97
2023-01-01T08:40:40.228Z,998.07
2023-01-01T08:41:40.253Z,998.04
2023-01-01T08:42:40.265Z,998.12
2023-01-01T08:43:40.286Z,998.19
2023-01-01T08:44:40.318Z,998.21
2023-01-01T08:45:40.318Z,998.23
2023-01-01T08:46:40.385Z,998.22
2023-01-01T08:47:40.388Z,998.22
2023-01-01T08:48:40.401Z,998.27
2023-01-01T08:49:40.386Z,998.23
2023-01-01T08:50:40.407Z,998.24
2023-01-01T08:51:40.421Z,998.25
2023-01-01T08:52:40.437Z,998.2
2023-01-01T08:53:44.158Z,998.25
2023-01-01T08:54:40.476Z,998.29
2023-01-01T08:55:40.489Z,998.28
2023-01-01T08:56:40.514Z,998.33
2023-01-01T08:57:40.529Z,998.51
2023-01-01T08:58:40.554Z,998.42
2023-01-01T08:59:40.566Z,998.44
2023-01-01T09:00:40.580Z,998.53
2023-01-01T09:01:40.752Z,998.5
2023-01-01T09:02:40.683Z,998.44
2023-01-01T09:03:40.687Z,998.44
2023-01-01T09:04:40.679Z,998.43
2023-01-01T09:05:40.664Z,998.44
2023-01-01T09:06:40.685Z,998.49
2023-01-01T09:07:40.708Z,998.51
2023-01-01T09:08:40.717Z,998.49
2023-01-01T09:09:40.736Z,998.51
2023-01-01T09:10:40.762Z,998.45
2023-01-01T09:11:40.794Z,998.47
2023-01-01T09:12:40.792Z,998.47
2023-01-01T09:13:40.810Z,998.51
2023-01-01T09:14:40.826Z,998.57
2023-01-01T09:15:40.844Z,998.5
2023-01-01T09:16:44.133Z,998.49
2023-01-01T09:17:40.878Z,998.52
2023-01-01T09:18:40.900Z,998.56
2023-01-01T09:19:40.914Z,998.51
2023-01-01T09:20:40.954Z,998.49
2023-01-01T09:21:40.948Z,998.49
2023-01-01T09:22:40.966Z,998.45
2023-01-01T09:23:40.981Z,998.42
2023-01-01T09:24:41.006Z,998.48
2023-01-01T09:25:41.015Z,998.44
2023-01-01T09:26:41.045Z,998.45
2023-01-01T09:27:41.056Z,998.52
2023-01-01T09:28:41.073Z,998.62
2023-01-01T09:29:41.089Z,998.62
2023-01-01T09:30:41.103Z,998.6
2023-01-01T09:31:41.185Z,998.66
2023-01-01T09:32:41.148Z,998.67
2023-01-01T09:33:41.157Z,998.73
2023-01-01T09:34:41.177Z,998.81
2023-01-01T09:35:41.194Z,998.82
2023-01-01T09:36:41.238Z,998.82
2023-01-01T09:37:41.230Z,998.79
2023-01-01T09:38:41.273Z,998.74
2023-01-01T09:39:41.263Z,998.79
2023-01-01T09:40:44.787Z,998.8
2023-01-01T09:41:41.298Z,998.79
2023-01-01T09:42:41.318Z,998.85
2023-01-01T09:43:41.334Z,998.86
2023-01-01T09:44:41.354Z,998.93
2023-01-01T09:45:41.437Z,999.02
2023-01-01T09:46:41.386Z,998.98
2023-01-01T09:47:41.424Z,998.98
2023-01-01T09:48:41.473Z,998.99
2023-01-01T09:49:41.448Z,998.98
2023-01-01T09:50:41.460Z,999.06
2023-01-01T09:51:48.887Z,999.07
2023-01-01T09:52:41.527Z,999.12
2023-01-01T09:53:41.794Z,999.15
2023-01-01T09:54:41.525Z,999.15
2023-01-01T09:55:41.545Z,999.18
2023-01-01T09:56:41.561Z,999.21
2023-01-01T09:57:41.582Z,999.25
2023-01-01T09:58:41.598Z,999.33
2023-01-01T09:59:41.618Z,999.31
2023-01-01T10:00:41.679Z,999.38
2023-01-01T10:01:41.759Z,999.41
2023-01-01T10:02:41.673Z,999.38
2023-01-01T10:03:41.887Z,999.41
2023-01-01T10:04:41.701Z,999.4
2023-01-01T10:05:41.723Z,999.4
2023-01-01T10:06:41.734Z,999.39
2023-01-01T10:07:41.768Z,999.35
2023-01-01T10:08:41.911Z,999.32
2023-01-01T10:09:41.789Z,999.28
2023-01-01T10:10:41.817Z,999.22
2023-01-01T10:11:41.823Z,999.28
2023-01-01T10:12:41.836Z,999.34
2023-01-01T10:13:41.938Z,999.29
2023-01-01T10:14:41.867Z,999.34
2023-01-01T10:15:41.894Z,999.34
2023-01-01T10:16:41.975Z,999.33
2023-01-01T10:17:41.983Z,999.33
2023-01-01T10:18:41.945Z,999.24
2023-01-01T10:19:41.970Z,999.23
2023-01-01T10:20:41.980Z,999.28
2023-01-01T10:21:46.612Z,999.21
2023-01-01T10:22:42.015Z,999.28
2023-01-01T10:23:42.051Z,999.27
2023-01-01T10:24:42.172Z,999.27
2023-01-01T10:25:42.069Z,999.16
2023-01-01T10:26:42.096Z,999.15
2023-01-01T10:27:42.106Z,999.18
2023-01-01T10:28:42.123Z,999.2
2023-01-01T10:29:42.142Z,999.18
2023-01-01T10:30:42.159Z,999.28
2023-01-01T10:31:42.295Z,999.23
2023-01-01T10:32:42.207Z,999.15
2023-01-01T10:33:42.214Z,999.17
2023-01-01T10:34:42.225Z,999.24
2023-01-01T10:35:42.242Z,999.17
2023-01-01T10:36:42.263Z,999.18
2023-01-01T10:37:42.291Z,999.18
2023-01-01T10:38:42.301Z,999.15
2023-01-01T10:39:42.316Z,999.23
2023-01-01T10:40:42.364Z,999.2
2023-01-01T10:41:42.354Z,999.18
2023-01-01T10:42:42.379Z,999.19
2023-01-01T10:43:42.383Z,999.18
2023-01-01T10:44:42.409Z,999.2
2023-01-01T10:45:42.465Z,999.28
2023-01-01T10:46:42.436Z,999.28
2023-01-01T10:47:42.454Z,999.3
2023-01-01T10:48:42.475Z,999.3
2023-01-01T10:49:42.488Z,999.29
2023-01-01T10:50:42.506Z,999.25
2023-01-01T10:51:42.525Z,999.29
2023-01-01T10:52:42.542Z,999.32
2023-01-01T10:53:43.102Z,999.26
2023-01-01T10:54:42.578Z,999.28
2023-01-01T10:55:42.595Z,999.26
2023-01-01T10:56:42.637Z,999.27
2023-01-01T10:57:42.629Z,999.28
2023-01-01T10:58:42.652Z,999.25
2023-01-01T10:59:45.591Z,999.23
2023-01-01T11:00:42.686Z,999.22
2023-01-01T11:01:42.753Z,999.2
2023-01-01T11:02:42.831Z,999.24
2023-01-01T11:03:42.736Z,999.17
2023-01-01T11:04:42.755Z,999.26
2023-01-01T11:05:42.777Z,999.18
2023-01-01T11:06:42.787Z,999.16
2023-01-01T11:07:42.806Z,999.13
2023-01-01T11:08:42.822Z,999.19
2023-01-01T11:09:57.137Z,999.13
2023-01-01T11:10:42.858Z,999.12
2023-01-01T11:11:42.881Z,999.09
2023-01-01T11:13:42.916Z,999.16
2023-01-01T11:14:42.929Z,999.11
2023-01-01T11:15:42.961Z,999.17
2023-01-01T11:16:42.975Z,999.17
2023-01-01T11:17:42.985Z,999.2
2023-01-01T11:18:43.000Z,999.26
2023-01-01T11:19:48.648Z,999.29
2023-01-01T11:20:43.035Z,999.26
2023-01-01T11:21:43.047Z,999.21
2023-01-01T11:22:43.069Z,999.17
2023-01-01T11:23:43.082Z,999.18
2023-01-01T11:24:43.106Z,999.12
2023-01-01T11:25:43.120Z,999.1
2023-01-01T11:26:43.139Z,999.05
2023-01-01T11:27:43.156Z,999.03
2023-01-01T11:28:43.301Z,998.97
2023-01-01T11:29:43.203Z,998.87
2023-01-01T11:30:43.257Z,998.89
2023-01-01T11:31:43.229Z,998.94
2023-01-01T11:32:43.243Z,998.94
2023-01-01T11:33:43.262Z,998.96
2023-01-01T11:34:43.279Z,998.99
2023-01-01T11:35:43.291Z,999.03
2023-01-01T11:36:43.316Z,999
2023-01-01T11:37:43.335Z,999.02
2023-01-01T11:38:43.344Z,999.04
2023-01-01T11:39:43.391Z,999.02
2023-01-01T11:40:43.403Z,999.01
2023-01-01T11:41:43.394Z,998.98
2023-01-01T11:42:43.420Z,999
2023-01-01T11:43:43.436Z,999
2023-01-01T11:44:43.474Z,998.91
2023-01-01T11:45:43.472Z,998.96
2023-01-01T11:46:43.487Z,998.93
2023-01-01T11:47:43.510Z,998.97
2023-01-01T11:48:43.532Z,999.01
2023-01-01T11:49:43.545Z,999.1
2023-01-01T11:50:43.559Z,999.06
2023-01-01T11:51:43.578Z,999
2023-01-01T11:52:43.591Z,999.01
2023-01-01T11:53:43.961Z,999.05
2023-01-01T11:54:43.630Z,998.98
2023-01-01T11:55:43.646Z,999.02
2023-01-01T11:56:43.663Z,999.12
2023-01-01T11:57:43.682Z,999.17
2023-01-01T11:58:43.700Z,999.25
2023-01-01T11:59:43.718Z,999.28
2023-01-01T12:00:43.767Z,999.26
2023-01-01T12:01:43.800Z,999.29
2023-01-01T12:02:43.781Z,999.35
2023-01-01T12:03:43.858Z,999.35
2023-01-01T12:04:43.801Z,999.4
2023-01-01T12:05:43.827Z,999.38
2023-01-01T12:06:43.837Z,999.42
2023-01-01T12:07:43.866Z,999.39
2023-01-01T12:08:43.877Z,999.41
2023-01-01T12:09:43.900Z,999.45
2023-01-01T12:10:43.912Z,999.5
2023-01-01T12:11:43.930Z,999.53
2023-01-01T12:12:43.953Z,999.49
2023-01-01T12:13:44.063Z,999.53
2023-01-01T12:14:43.980Z,999.5
2023-01-01T12:15:44.096Z,999.52
2023-01-01T12:16:44.080Z,999.5
2023-01-01T12:17:44.039Z,999.51
2023-01-01T12:18:44.052Z,999.53
2023-01-01T12:19:44.068Z,999.5
2023-01-01T12:20:44.115Z,999.5
2023-01-01T12:21:47.607Z,999.52
2023-01-01T12:22:44.121Z,999.55
2023-01-01T12:23:44.156Z,999.56
2023-01-01T12:24:44.155Z,999.51
2023-01-01T12:25:44.178Z,999.55
2023-01-01T12:26:44.191Z,999.63
2023-01-01T12:27:44.208Z,999.56
2023-01-01T12:28:44.234Z,999.54
2023-01-01T12:29:44.241Z,999.61
2023-01-01T12:30:44.261Z,999.59
2023-01-01T12:31:44.353Z,999.61
2023-01-01T12:32:44.323Z,999.59
2023-01-01T12:33:44.308Z,999.62
2023-01-01T12:34:44.331Z,999.6
2023-01-01T12:35:44.351Z,999.64
2023-01-01T12:36:44.365Z,999.64